sensor_id;sensor_type;location;lat;lon;timestamp;P1;durP1;ratioP1;P2;durP2;ratioP2
47383;SDS011;33129;52.232;5.192;2022-10-18T00:00:40;34.03;;;16.03;;
47383;SDS011;33129;52.232;5.192;2022-10-18T00:03:06;41.77;;;19.47;;
47383;SDS011;33129;52.232;5.192;2022-10-18T00:05:32;29.03;;;16.10;;
47383;SDS011;33129;52.232;5.192;2022-10-18T00:07:58;37.17;;;18.97;;
47383;SDS011;33129;52.232;5.192;2022-10-18T00:10:23;35.47;;;18.93;;
47383;SDS011;33129;52.232;5.192;2022-10-18T00:12:49;31.27;;;18.10;;
47383;SDS011;33129;52.232;5.192;2022-10-18T00:15:15;28.47;;;17.60;;
47383;SDS011;33129;52.232;5.192;2022-10-18T00:17:42;30.93;;;15.47;;
47383;SDS011;33129;52.232;5.192;2022-10-18T00:20:08;42.33;;;18.13;;
47383;SDS011;33129;52.232;5.192;2022-10-18T00:22:35;44.50;;;17.80;;
47383;SDS011;33129;52.232;5.192;2022-10-18T00:25:04;55.07;;;19.50;;
47383;SDS011;33129;52.232;5.192;2022-10-18T00:27:31;43.90;;;17.50;;
47383;SDS011;33129;52.232;5.192;2022-10-18T00:29:58;29.17;;;16.47;;
47383;SDS011;33129;52.232;5.192;2022-10-18T00:32:23;51.10;;;17.53;;
47383;SDS011;33129;52.232;5.192;2022-10-18T00:34:50;46.80;;;16.90;;
47383;SDS011;33129;52.232;5.192;2022-10-18T00:37:16;47.70;;;16.50;;
47383;SDS011;33129;52.232;5.192;2022-10-18T00:39:42;31.90;;;15.47;;
47383;SDS011;33129;52.232;5.192;2022-10-18T00:42:18;36.50;;;16.33;;
47383;SDS011;33129;52.232;5.192;2022-10-18T00:47:15;29.83;;;15.90;;
47383;SDS011;33129;52.232;5.192;2022-10-18T00:49:49;32.97;;;15.53;;
47383;SDS011;33129;52.232;5.192;2022-10-18T00:52:24;44.27;;;16.67;;
47383;SDS011;33129;52.232;5.192;2022-10-18T00:55:03;39.27;;;14.90;;
47383;SDS011;33129;52.232;5.192;2022-10-18T00:57:30;39.43;;;15.83;;
47383;SDS011;33129;52.232;5.192;2022-10-18T00:59:57;45.67;;;16.10;;
47383;SDS011;33129;52.232;5.192;2022-10-18T01:02:23;27.87;;;14.77;;
47383;SDS011;33129;52.232;5.192;2022-10-18T01:04:50;33.07;;;14.70;;
47383;SDS011;33129;52.232;5.192;2022-10-18T01:07:20;30.97;;;13.87;;
47383;SDS011;33129;52.232;5.192;2022-10-18T01:16:18;22.20;;;14.17;;
47383;SDS011;33129;52.232;5.192;2022-10-18T01:21:52;18.40;;;13.03;;
47383;SDS011;33129;52.232;5.192;2022-10-18T01:27:54;15.53;;;11.27;;
47383;SDS011;33129;52.232;5.192;2022-10-18T01:30:47;17.60;;;12.70;;
47383;SDS011;33129;52.232;5.192;2022-10-18T01:33:52;18.40;;;13.10;;
47383;SDS011;33129;52.232;5.192;2022-10-18T01:36:28;20.80;;;13.73;;
47383;SDS011;33129;52.232;5.192;2022-10-18T01:38:58;18.57;;;12.87;;
47383;SDS011;33129;52.232;5.192;2022-10-18T01:41:29;21.20;;;13.03;;
47383;SDS011;33129;52.232;5.192;2022-10-18T01:43:57;23.33;;;15.13;;
47383;SDS011;33129;52.232;5.192;2022-10-18T01:46:26;22.17;;;15.13;;
47383;SDS011;33129;52.232;5.192;2022-10-18T01:48:53;30.90;;;16.23;;
47383;SDS011;33129;52.232;5.192;2022-10-18T01:51:24;23.60;;;13.47;;
47383;SDS011;33129;52.232;5.192;2022-10-18T01:53:52;21.67;;;13.57;;
47383;SDS011;33129;52.232;5.192;2022-10-18T01:56:23;20.37;;;12.73;;
47383;SDS011;33129;52.232;5.192;2022-10-18T02:02:16;18.47;;;12.10;;
47383;SDS011;33129;52.232;5.192;2022-10-18T02:07:57;19.33;;;13.67;;
47383;SDS011;33129;52.232;5.192;2022-10-18T02:10:37;19.47;;;12.73;;
47383;SDS011;33129;52.232;5.192;2022-10-18T02:13:12;16.85;;;12.23;;
47383;SDS011;33129;52.232;5.192;2022-10-18T02:15:43;18.02;;;12.40;;
47383;SDS011;33129;52.232;5.192;2022-10-18T02:18:21;17.77;;;10.98;;
47383;SDS011;33129;52.232;5.192;2022-10-18T02:20:53;14.88;;;10.95;;
47383;SDS011;33129;52.232;5.192;2022-10-18T02:23:21;23.03;;;11.10;;
47383;SDS011;33129;52.232;5.192;2022-10-18T02:25:49;15.23;;;10.87;;
47383;SDS011;33129;52.232;5.192;2022-10-18T02:28:16;16.77;;;10.53;;
47383;SDS011;33129;52.232;5.192;2022-10-18T02:33:26;18.35;;;10.73;;
47383;SDS011;33129;52.232;5.192;2022-10-18T02:36:01;19.37;;;11.10;;
47383;SDS011;33129;52.232;5.192;2022-10-18T02:38:35;25.57;;;13.53;;
47383;SDS011;33129;52.232;5.192;2022-10-18T02:41:04;15.40;;;10.73;;
47383;SDS011;33129;52.232;5.192;2022-10-18T02:43:29;20.77;;;12.13;;
47383;SDS011;33129;52.232;5.192;2022-10-18T02:45:55;20.20;;;12.80;;
47383;SDS011;33129;52.232;5.192;2022-10-18T02:48:21;22.83;;;13.20;;
47383;SDS011;33129;52.232;5.192;2022-10-18T02:50:48;30.70;;;13.17;;
47383;SDS011;33129;52.232;5.192;2022-10-18T02:53:13;20.60;;;12.33;;
47383;SDS011;33129;52.232;5.192;2022-10-18T02:55:39;25.97;;;13.57;;
47383;SDS011;33129;52.232;5.192;2022-10-18T02:58:06;28.80;;;13.93;;
47383;SDS011;33129;52.232;5.192;2022-10-18T03:00:32;21.33;;;12.47;;
47383;SDS011;33129;52.232;5.192;2022-10-18T03:02:58;28.97;;;13.43;;
47383;SDS011;33129;52.232;5.192;2022-10-18T03:05:24;39.83;;;14.13;;
47383;SDS011;33129;52.232;5.192;2022-10-18T03:07:51;36.37;;;14.43;;
47383;SDS011;33129;52.232;5.192;2022-10-18T03:10:21;30.13;;;13.23;;
47383;SDS011;33129;52.232;5.192;2022-10-18T03:12:46;31.30;;;13.90;;
47383;SDS011;33129;52.232;5.192;2022-10-18T03:15:12;22.67;;;12.77;;
47383;SDS011;33129;52.232;5.192;2022-10-18T03:17:38;25.27;;;12.10;;
47383;SDS011;33129;52.232;5.192;2022-10-18T03:20:04;23.53;;;12.13;;
47383;SDS011;33129;52.232;5.192;2022-10-18T03:22:30;22.07;;;11.77;;
47383;SDS011;33129;52.232;5.192;2022-10-18T03:24:56;21.37;;;12.07;;
47383;SDS011;33129;52.232;5.192;2022-10-18T03:27:22;19.03;;;11.67;;
47383;SDS011;33129;52.232;5.192;2022-10-18T03:29:48;21.07;;;12.13;;
47383;SDS011;33129;52.232;5.192;2022-10-18T03:32:14;19.80;;;11.83;;
47383;SDS011;33129;52.232;5.192;2022-10-18T03:34:39;23.60;;;12.03;;
47383;SDS011;33129;52.232;5.192;2022-10-18T03:37:06;24.83;;;12.27;;
47383;SDS011;33129;52.232;5.192;2022-10-18T03:39:32;27.33;;;12.63;;
47383;SDS011;33129;52.232;5.192;2022-10-18T03:41:58;21.23;;;10.70;;
47383;SDS011;33129;52.232;5.192;2022-10-18T03:44:23;18.43;;;10.57;;
47383;SDS011;33129;52.232;5.192;2022-10-18T03:46:49;23.50;;;11.20;;
47383;SDS011;33129;52.232;5.192;2022-10-18T03:49:15;26.80;;;11.20;;
47383;SDS011;33129;52.232;5.192;2022-10-18T03:51:41;27.43;;;11.53;;
47383;SDS011;33129;52.232;5.192;2022-10-18T03:54:06;26.53;;;12.80;;
47383;SDS011;33129;52.232;5.192;2022-10-18T03:56:32;24.43;;;12.50;;
47383;SDS011;33129;52.232;5.192;2022-10-18T03:58:58;20.40;;;11.53;;
47383;SDS011;33129;52.232;5.192;2022-10-18T04:01:24;20.80;;;11.83;;
47383;SDS011;33129;52.232;5.192;2022-10-18T04:03:49;18.97;;;11.10;;
47383;SDS011;33129;52.232;5.192;2022-10-18T04:06:15;24.60;;;10.70;;
47383;SDS011;33129;52.232;5.192;2022-10-18T04:08:41;22.90;;;11.50;;
47383;SDS011;33129;52.232;5.192;2022-10-18T04:11:06;21.33;;;10.90;;
47383;SDS011;33129;52.232;5.192;2022-10-18T04:13:34;27.83;;;12.40;;
47383;SDS011;33129;52.232;5.192;2022-10-18T04:15:59;34.70;;;13.00;;
47383;SDS011;33129;52.232;5.192;2022-10-18T04:18:25;43.17;;;13.27;;
47383;SDS011;33129;52.232;5.192;2022-10-18T04:20:51;46.23;;;14.50;;
47383;SDS011;33129;52.232;5.192;2022-10-18T04:23:16;41.23;;;14.17;;
47383;SDS011;33129;52.232;5.192;2022-10-18T04:25:42;39.43;;;13.13;;
47383;SDS011;33129;52.232;5.192;2022-10-18T04:28:08;32.70;;;13.27;;
47383;SDS011;33129;52.232;5.192;2022-10-18T04:30:34;32.33;;;12.47;;
47383;SDS011;33129;52.232;5.192;2022-10-18T04:32:59;38.87;;;14.20;;
47383;SDS011;33129;52.232;5.192;2022-10-18T04:35:25;31.67;;;12.17;;
47383;SDS011;33129;52.232;5.192;2022-10-18T04:37:53;32.10;;;12.93;;
47383;SDS011;33129;52.232;5.192;2022-10-18T04:40:19;35.13;;;12.57;;
47383;SDS011;33129;52.232;5.192;2022-10-18T04:42:45;37.80;;;13.97;;
47383;SDS011;33129;52.232;5.192;2022-10-18T04:45:11;100.03;;;22.73;;
47383;SDS011;33129;52.232;5.192;2022-10-18T04:47:37;22.77;;;11.57;;
47383;SDS011;33129;52.232;5.192;2022-10-18T04:50:03;25.40;;;11.50;;
47383;SDS011;33129;52.232;5.192;2022-10-18T04:52:29;21.90;;;12.07;;
47383;SDS011;33129;52.232;5.192;2022-10-18T04:54:56;28.50;;;12.17;;
47383;SDS011;33129;52.232;5.192;2022-10-18T04:57:21;25.80;;;11.57;;
47383;SDS011;33129;52.232;5.192;2022-10-18T04:59:47;24.13;;;11.43;;
47383;SDS011;33129;52.232;5.192;2022-10-18T05:02:13;31.23;;;14.23;;
47383;SDS011;33129;52.232;5.192;2022-10-18T05:04:38;20.57;;;11.40;;
47383;SDS011;33129;52.232;5.192;2022-10-18T05:07:07;19.73;;;11.90;;
47383;SDS011;33129;52.232;5.192;2022-10-18T05:09:36;31.50;;;12.77;;
47383;SDS011;33129;52.232;5.192;2022-10-18T05:12:02;52.37;;;15.07;;
47383;SDS011;33129;52.232;5.192;2022-10-18T05:14:28;27.73;;;12.93;;
47383;SDS011;33129;52.232;5.192;2022-10-18T05:16:53;26.50;;;12.47;;
47383;SDS011;33129;52.232;5.192;2022-10-18T05:19:19;23.43;;;11.63;;
47383;SDS011;33129;52.232;5.192;2022-10-18T05:21:45;30.30;;;12.43;;
47383;SDS011;33129;52.232;5.192;2022-10-18T05:24:11;35.63;;;12.93;;
47383;SDS011;33129;52.232;5.192;2022-10-18T05:26:37;24.27;;;10.57;;
47383;SDS011;33129;52.232;5.192;2022-10-18T05:29:02;19.83;;;11.00;;
47383;SDS011;33129;52.232;5.192;2022-10-18T05:31:28;14.77;;;10.13;;
47383;SDS011;33129;52.232;5.192;2022-10-18T05:33:54;21.17;;;11.83;;
47383;SDS011;33129;52.232;5.192;2022-10-18T05:36:20;46.57;;;13.63;;
47383;SDS011;33129;52.232;5.192;2022-10-18T05:38:46;32.60;;;12.20;;
47383;SDS011;33129;52.232;5.192;2022-10-18T05:41:13;27.37;;;11.20;;
47383;SDS011;33129;52.232;5.192;2022-10-18T05:43:39;36.03;;;10.47;;
47383;SDS011;33129;52.232;5.192;2022-10-18T05:46:05;61.73;;;12.70;;
47383;SDS011;33129;52.232;5.192;2022-10-18T05:48:32;42.10;;;11.40;;
47383;SDS011;33129;52.232;5.192;2022-10-18T05:50:59;22.87;;;8.87;;
47383;SDS011;33129;52.232;5.192;2022-10-18T05:53:25;26.43;;;9.80;;
47383;SDS011;33129;52.232;5.192;2022-10-18T05:55:52;65.37;;;15.13;;
47383;SDS011;33129;52.232;5.192;2022-10-18T05:58:18;30.43;;;9.47;;
47383;SDS011;33129;52.232;5.192;2022-10-18T06:00:44;44.77;;;10.47;;
47383;SDS011;33129;52.232;5.192;2022-10-18T06:03:10;16.93;;;6.07;;
47383;SDS011;33129;52.232;5.192;2022-10-18T06:05:36;18.57;;;7.23;;
47383;SDS011;33129;52.232;5.192;2022-10-18T06:08:01;23.50;;;8.33;;
47383;SDS011;33129;52.232;5.192;2022-10-18T06:10:27;18.30;;;7.60;;
47383;SDS011;33129;52.232;5.192;2022-10-18T06:12:56;29.47;;;8.47;;
47383;SDS011;33129;52.232;5.192;2022-10-18T06:15:22;40.13;;;9.47;;
47383;SDS011;33129;52.232;5.192;2022-10-18T06:17:50;19.40;;;7.30;;
47383;SDS011;33129;52.232;5.192;2022-10-18T06:20:17;19.70;;;7.60;;
47383;SDS011;33129;52.232;5.192;2022-10-18T06:22:44;17.43;;;7.27;;
47383;SDS011;33129;52.232;5.192;2022-10-18T06:25:10;26.20;;;9.53;;
47383;SDS011;33129;52.232;5.192;2022-10-18T06:27:35;13.63;;;8.43;;
47383;SDS011;33129;52.232;5.192;2022-10-18T06:30:02;25.67;;;10.17;;
47383;SDS011;33129;52.232;5.192;2022-10-18T06:32:28;19.53;;;9.50;;
47383;SDS011;33129;52.232;5.192;2022-10-18T06:34:54;17.77;;;8.30;;
47383;SDS011;33129;52.232;5.192;2022-10-18T06:37:19;23.40;;;8.53;;
47383;SDS011;33129;52.232;5.192;2022-10-18T06:39:45;32.57;;;10.20;;
47383;SDS011;33129;52.232;5.192;2022-10-18T06:42:11;21.77;;;8.37;;
47383;SDS011;33129;52.232;5.192;2022-10-18T06:44:36;27.17;;;8.70;;
47383;SDS011;33129;52.232;5.192;2022-10-18T06:47:02;49.87;;;10.40;;
47383;SDS011;33129;52.232;5.192;2022-10-18T06:49:28;26.77;;;8.27;;
47383;SDS011;33129;52.232;5.192;2022-10-18T06:51:54;49.23;;;10.30;;
47383;SDS011;33129;52.232;5.192;2022-10-18T06:54:20;29.27;;;8.73;;
47383;SDS011;33129;52.232;5.192;2022-10-18T06:56:45;33.07;;;9.30;;
47383;SDS011;33129;52.232;5.192;2022-10-18T06:59:12;57.00;;;12.27;;
47383;SDS011;33129;52.232;5.192;2022-10-18T07:01:38;56.47;;;10.53;;
47383;SDS011;33129;52.232;5.192;2022-10-18T07:04:04;41.63;;;8.63;;
47383;SDS011;33129;52.232;5.192;2022-10-18T07:06:30;41.27;;;9.07;;
47383;SDS011;33129;52.232;5.192;2022-10-18T07:08:57;24.67;;;7.10;;
47383;SDS011;33129;52.232;5.192;2022-10-18T07:11:24;25.90;;;7.40;;
47383;SDS011;33129;52.232;5.192;2022-10-18T07:13:51;33.00;;;9.30;;
47383;SDS011;33129;52.232;5.192;2022-10-18T07:16:18;19.47;;;7.80;;
47383;SDS011;33129;52.232;5.192;2022-10-18T07:18:46;20.87;;;7.50;;
47383;SDS011;33129;52.232;5.192;2022-10-18T07:21:14;17.10;;;6.73;;
47383;SDS011;33129;52.232;5.192;2022-10-18T07:23:44;20.33;;;7.37;;
47383;SDS011;33129;52.232;5.192;2022-10-18T07:26:45;16.80;;;7.80;;
47383;SDS011;33129;52.232;5.192;2022-10-18T07:29:07;15.00;;;6.70;;
47383;SDS011;33129;52.232;5.192;2022-10-18T07:31:35;15.57;;;7.30;;
47383;SDS011;33129;52.232;5.192;2022-10-18T07:34:05;12.60;;;6.68;;
47383;SDS011;33129;52.232;5.192;2022-10-18T07:36:33;13.67;;;7.83;;
47383;SDS011;33129;52.232;5.192;2022-10-18T07:38:59;10.83;;;7.07;;
47383;SDS011;33129;52.232;5.192;2022-10-18T07:41:24;12.47;;;7.37;;
47383;SDS011;33129;52.232;5.192;2022-10-18T07:43:51;10.87;;;7.30;;
47383;SDS011;33129;52.232;5.192;2022-10-18T07:46:17;12.80;;;7.10;;
47383;SDS011;33129;52.232;5.192;2022-10-18T07:48:45;10.80;;;6.80;;
47383;SDS011;33129;52.232;5.192;2022-10-18T07:51:11;9.93;;;6.93;;
47383;SDS011;33129;52.232;5.192;2022-10-18T07:53:37;10.97;;;7.30;;
47383;SDS011;33129;52.232;5.192;2022-10-18T07:56:04;12.17;;;7.63;;
47383;SDS011;33129;52.232;5.192;2022-10-18T07:58:44;11.73;;;6.57;;
47383;SDS011;33129;52.232;5.192;2022-10-18T08:01:13;11.37;;;7.27;;
47383;SDS011;33129;52.232;5.192;2022-10-18T08:03:40;13.50;;;8.17;;
47383;SDS011;33129;52.232;5.192;2022-10-18T08:06:07;12.57;;;6.70;;
47383;SDS011;33129;52.232;5.192;2022-10-18T08:08:35;14.83;;;7.43;;
47383;SDS011;33129;52.232;5.192;2022-10-18T08:11:12;10.03;;;5.40;;
47383;SDS011;33129;52.232;5.192;2022-10-18T08:16:10;11.43;;;5.30;;
47383;SDS011;33129;52.232;5.192;2022-10-18T08:18:40;8.95;;;4.25;;
47383;SDS011;33129;52.232;5.192;2022-10-18T08:21:07;8.68;;;4.57;;
47383;SDS011;33129;52.232;5.192;2022-10-18T08:23:35;9.73;;;4.30;;
47383;SDS011;33129;52.232;5.192;2022-10-18T08:26:05;12.00;;;5.10;;
47383;SDS011;33129;52.232;5.192;2022-10-18T08:28:34;10.02;;;4.15;;
47383;SDS011;33129;52.232;5.192;2022-10-18T08:31:01;12.93;;;4.13;;
47383;SDS011;33129;52.232;5.192;2022-10-18T08:33:28;12.13;;;3.83;;
47383;SDS011;33129;52.232;5.192;2022-10-18T08:35:55;10.57;;;4.00;;
47383;SDS011;33129;52.232;5.192;2022-10-18T08:38:22;11.05;;;4.25;;
47383;SDS011;33129;52.232;5.192;2022-10-18T08:40:48;13.90;;;3.95;;
47383;SDS011;33129;52.232;5.192;2022-10-18T08:46:07;7.20;;;3.58;;
47383;SDS011;33129;52.232;5.192;2022-10-18T08:48:44;10.15;;;3.70;;
47383;SDS011;33129;52.232;5.192;2022-10-18T08:51:22;6.60;;;3.10;;
47383;SDS011;33129;52.232;5.192;2022-10-18T08:54:06;8.18;;;2.78;;
47383;SDS011;33129;52.232;5.192;2022-10-18T08:57:12;9.80;;;3.30;;
47383;SDS011;33129;52.232;5.192;2022-10-18T08:59:42;7.82;;;2.78;;
47383;SDS011;33129;52.232;5.192;2022-10-18T09:09:02;8.55;;;2.35;;
47383;SDS011;33129;52.232;5.192;2022-10-18T09:25:48;9.32;;;2.30;;
47383;SDS011;33129;52.232;5.192;2022-10-18T09:36:51;8.27;;;2.50;;
47383;SDS011;33129;52.232;5.192;2022-10-18T09:39:33;9.55;;;2.00;;
47383;SDS011;33129;52.232;5.192;2022-10-18T09:42:02;7.68;;;1.88;;
47383;SDS011;33129;52.232;5.192;2022-10-18T09:44:54;7.43;;;1.88;;
47383;SDS011;33129;52.232;5.192;2022-10-18T09:50:17;5.85;;;1.90;;
47383;SDS011;33129;52.232;5.192;2022-10-18T09:53:00;5.03;;;1.73;;
47383;SDS011;33129;52.232;5.192;2022-10-18T09:55:37;7.53;;;1.80;;
47383;SDS011;33129;52.232;5.192;2022-10-18T09:58:14;9.23;;;2.13;;
47383;SDS011;33129;52.232;5.192;2022-10-18T10:00:46;9.63;;;2.10;;
47383;SDS011;33129;52.232;5.192;2022-10-18T10:03:14;6.95;;;1.92;;
47383;SDS011;33129;52.232;5.192;2022-10-18T10:05:40;5.20;;;1.58;;
47383;SDS011;33129;52.232;5.192;2022-10-18T10:08:07;8.95;;;1.80;;
47383;SDS011;33129;52.232;5.192;2022-10-18T10:10:33;7.20;;;1.75;;
47383;SDS011;33129;52.232;5.192;2022-10-18T10:13:04;7.80;;;1.92;;
47383;SDS011;33129;52.232;5.192;2022-10-18T10:16:00;6.57;;;1.98;;
47383;SDS011;33129;52.232;5.192;2022-10-18T10:18:31;6.75;;;1.80;;
47383;SDS011;33129;52.232;5.192;2022-10-18T10:20:59;6.80;;;2.05;;
47383;SDS011;33129;52.232;5.192;2022-10-18T10:23:45;8.27;;;1.70;;
47383;SDS011;33129;52.232;5.192;2022-10-18T10:28:49;5.30;;;1.77;;
47383;SDS011;33129;52.232;5.192;2022-10-18T10:31:24;5.90;;;2.15;;
47383;SDS011;33129;52.232;5.192;2022-10-18T10:36:54;8.32;;;2.33;;
47383;SDS011;33129;52.232;5.192;2022-10-18T10:39:21;8.45;;;2.03;;
47383;SDS011;33129;52.232;5.192;2022-10-18T10:41:52;6.10;;;1.80;;
47383;SDS011;33129;52.232;5.192;2022-10-18T10:44:22;8.07;;;2.00;;
47383;SDS011;33129;52.232;5.192;2022-10-18T10:46:51;8.82;;;1.73;;
47383;SDS011;33129;52.232;5.192;2022-10-18T10:52:03;8.63;;;1.85;;
47383;SDS011;33129;52.232;5.192;2022-10-18T10:54:30;7.30;;;1.77;;
47383;SDS011;33129;52.232;5.192;2022-10-18T10:59:47;5.28;;;1.20;;
47383;SDS011;33129;52.232;5.192;2022-10-18T11:02:21;7.20;;;1.40;;
47383;SDS011;33129;52.232;5.192;2022-10-18T11:04:55;7.75;;;1.90;;
47383;SDS011;33129;52.232;5.192;2022-10-18T11:07:45;5.15;;;1.50;;
47383;SDS011;33129;52.232;5.192;2022-10-18T11:10:12;12.35;;;2.10;;
47383;SDS011;33129;52.232;5.192;2022-10-18T11:15:39;8.93;;;2.08;;
47383;SDS011;33129;52.232;5.192;2022-10-18T11:18:21;7.05;;;1.95;;
47383;SDS011;33129;52.232;5.192;2022-10-18T11:20:54;7.30;;;2.03;;
47383;SDS011;33129;52.232;5.192;2022-10-18T11:24:00;6.78;;;1.73;;
47383;SDS011;33129;52.232;5.192;2022-10-18T11:40:59;8.10;;;1.67;;
47383;SDS011;33129;52.232;5.192;2022-10-18T11:43:53;7.40;;;1.70;;
47383;SDS011;33129;52.232;5.192;2022-10-18T11:46:31;7.53;;;1.77;;
47383;SDS011;33129;52.232;5.192;2022-10-18T11:52:03;7.85;;;1.88;;
47383;SDS011;33129;52.232;5.192;2022-10-18T11:57:27;5.75;;;1.58;;
47383;SDS011;33129;52.232;5.192;2022-10-18T12:05:53;5.60;;;1.65;;
47383;SDS011;33129;52.232;5.192;2022-10-18T12:08:26;8.35;;;1.45;;
47383;SDS011;33129;52.232;5.192;2022-10-18T12:11:00;6.22;;;1.40;;
47383;SDS011;33129;52.232;5.192;2022-10-18T12:13:50;9.73;;;1.95;;
47383;SDS011;33129;52.232;5.192;2022-10-18T12:16:29;7.72;;;2.00;;
47383;SDS011;33129;52.232;5.192;2022-10-18T12:19:01;8.63;;;1.60;;
47383;SDS011;33129;52.232;5.192;2022-10-18T12:21:32;7.40;;;1.80;;
47383;SDS011;33129;52.232;5.192;2022-10-18T12:26:34;6.30;;;1.50;;
47383;SDS011;33129;52.232;5.192;2022-10-18T12:32:02;6.53;;;1.73;;
47383;SDS011;33129;52.232;5.192;2022-10-18T12:34:36;9.20;;;1.77;;
47383;SDS011;33129;52.232;5.192;2022-10-18T12:40:02;6.15;;;1.40;;
47383;SDS011;33129;52.232;5.192;2022-10-18T12:42:41;8.02;;;1.23;;
47383;SDS011;33129;52.232;5.192;2022-10-18T12:45:19;7.65;;;1.92;;
47383;SDS011;33129;52.232;5.192;2022-10-18T12:48:01;6.65;;;1.55;;
47383;SDS011;33129;52.232;5.192;2022-10-18T12:50:35;7.40;;;1.30;;
47383;SDS011;33129;52.232;5.192;2022-10-18T12:53:19;5.53;;;1.15;;
47383;SDS011;33129;52.232;5.192;2022-10-18T12:55:51;8.00;;;1.30;;
47383;SDS011;33129;52.232;5.192;2022-10-18T13:00:54;6.22;;;1.30;;
47383;SDS011;33129;52.232;5.192;2022-10-18T13:03:33;6.05;;;1.35;;
47383;SDS011;33129;52.232;5.192;2022-10-18T13:06:21;4.63;;;1.02;;
47383;SDS011;33129;52.232;5.192;2022-10-18T13:08:48;7.60;;;1.52;;
47383;SDS011;33129;52.232;5.192;2022-10-18T13:11:41;9.65;;;1.35;;
47383;SDS011;33129;52.232;5.192;2022-10-18T13:14:24;5.80;;;1.35;;
47383;SDS011;33129;52.232;5.192;2022-10-18T13:17:12;8.10;;;1.70;;
47383;SDS011;33129;52.232;5.192;2022-10-18T13:22:52;7.03;;;1.85;;
47383;SDS011;33129;52.232;5.192;2022-10-18T13:26:11;5.38;;;1.42;;
47383;SDS011;33129;52.232;5.192;2022-10-18T13:34:38;5.57;;;1.20;;
47383;SDS011;33129;52.232;5.192;2022-10-18T13:37:05;8.15;;;1.40;;
47383;SDS011;33129;52.232;5.192;2022-10-18T13:39:34;8.70;;;1.45;;
47383;SDS011;33129;52.232;5.192;2022-10-18T13:44:33;7.43;;;1.58;;
47383;SDS011;33129;52.232;5.192;2022-10-18T14:00:57;8.02;;;1.60;;
47383;SDS011;33129;52.232;5.192;2022-10-18T14:04:05;10.55;;;2.22;;
47383;SDS011;33129;52.232;5.192;2022-10-18T14:06:57;7.78;;;1.80;;
47383;SDS011;33129;52.232;5.192;2022-10-18T14:09:25;7.03;;;1.67;;
47383;SDS011;33129;52.232;5.192;2022-10-18T14:12:06;9.15;;;1.58;;
47383;SDS011;33129;52.232;5.192;2022-10-18T14:14:42;9.00;;;1.58;;
47383;SDS011;33129;52.232;5.192;2022-10-18T14:17:43;7.20;;;1.60;;
47383;SDS011;33129;52.232;5.192;2022-10-18T14:20:33;6.10;;;1.60;;
47383;SDS011;33129;52.232;5.192;2022-10-18T14:25:37;4.78;;;1.15;;
47383;SDS011;33129;52.232;5.192;2022-10-18T14:28:10;6.00;;;1.40;;
47383;SDS011;33129;52.232;5.192;2022-10-18T14:30:58;7.65;;;1.67;;
47383;SDS011;33129;52.232;5.192;2022-10-18T14:36:11;5.65;;;1.55;;
47383;SDS011;33129;52.232;5.192;2022-10-18T14:41:19;6.13;;;1.10;;
47383;SDS011;33129;52.232;5.192;2022-10-18T14:43:51;8.45;;;1.70;;
47383;SDS011;33129;52.232;5.192;2022-10-18T14:49:22;6.25;;;1.45;;
47383;SDS011;33129;52.232;5.192;2022-10-18T14:51:52;5.70;;;1.30;;
47383;SDS011;33129;52.232;5.192;2022-10-18T14:54:22;6.68;;;1.90;;
47383;SDS011;33129;52.232;5.192;2022-10-18T14:56:54;5.22;;;1.90;;
47383;SDS011;33129;52.232;5.192;2022-10-18T14:59:21;9.23;;;1.70;;
47383;SDS011;33129;52.232;5.192;2022-10-18T15:02:00;9.15;;;2.00;;
47383;SDS011;33129;52.232;5.192;2022-10-18T15:04:34;9.40;;;2.00;;
47383;SDS011;33129;52.232;5.192;2022-10-18T15:07:01;7.20;;;1.65;;
47383;SDS011;33129;52.232;5.192;2022-10-18T15:09:30;9.43;;;2.80;;
47383;SDS011;33129;52.232;5.192;2022-10-18T15:11:59;6.95;;;1.90;;
47383;SDS011;33129;52.232;5.192;2022-10-18T15:14:28;7.10;;;1.63;;
47383;SDS011;33129;52.232;5.192;2022-10-18T15:16:57;8.10;;;1.90;;
47383;SDS011;33129;52.232;5.192;2022-10-18T15:22:04;10.73;;;2.33;;
47383;SDS011;33129;52.232;5.192;2022-10-18T15:29:53;9.40;;;1.73;;
47383;SDS011;33129;52.232;5.192;2022-10-18T15:32:26;6.35;;;1.98;;
47383;SDS011;33129;52.232;5.192;2022-10-18T15:34:54;11.02;;;2.67;;
47383;SDS011;33129;52.232;5.192;2022-10-18T15:37:44;8.02;;;1.58;;
47383;SDS011;33129;52.232;5.192;2022-10-18T15:40:31;8.40;;;2.00;;
47383;SDS011;33129;52.232;5.192;2022-10-18T15:43:01;8.30;;;1.90;;
47383;SDS011;33129;52.232;5.192;2022-10-18T15:45:31;11.40;;;2.67;;
47383;SDS011;33129;52.232;5.192;2022-10-18T15:55:54;7.20;;;2.03;;
47383;SDS011;33129;52.232;5.192;2022-10-18T16:01:14;9.05;;;1.70;;
47383;SDS011;33129;52.232;5.192;2022-10-18T16:04:44;10.05;;;2.72;;
47383;SDS011;33129;52.232;5.192;2022-10-18T16:06:54;6.50;;;2.10;;
47383;SDS011;33129;52.232;5.192;2022-10-18T16:09:22;8.48;;;1.73;;
47383;SDS011;33129;52.232;5.192;2022-10-18T16:11:50;6.15;;;1.65;;
47383;SDS011;33129;52.232;5.192;2022-10-18T16:14:17;8.05;;;1.80;;
47383;SDS011;33129;52.232;5.192;2022-10-18T16:16:44;8.80;;;2.15;;
47383;SDS011;33129;52.232;5.192;2022-10-18T16:19:14;8.35;;;2.08;;
47383;SDS011;33129;52.232;5.192;2022-10-18T16:21:46;9.13;;;2.45;;
47383;SDS011;33129;52.232;5.192;2022-10-18T16:24:12;8.68;;;2.42;;
47383;SDS011;33129;52.232;5.192;2022-10-18T16:26:39;5.68;;;1.77;;
47383;SDS011;33129;52.232;5.192;2022-10-18T16:29:05;7.38;;;2.05;;
47383;SDS011;33129;52.232;5.192;2022-10-18T16:31:48;11.38;;;1.85;;
47383;SDS011;33129;52.232;5.192;2022-10-18T16:34:15;8.77;;;2.00;;
47383;SDS011;33129;52.232;5.192;2022-10-18T16:36:42;7.97;;;2.03;;
47383;SDS011;33129;52.232;5.192;2022-10-18T16:39:13;7.70;;;2.15;;
47383;SDS011;33129;52.232;5.192;2022-10-18T16:41:41;8.90;;;1.90;;
47383;SDS011;33129;52.232;5.192;2022-10-18T16:44:07;9.45;;;2.30;;
47383;SDS011;33129;52.232;5.192;2022-10-18T16:46:33;6.05;;;1.92;;
47383;SDS011;33129;52.232;5.192;2022-10-18T16:49:02;9.63;;;3.03;;
47383;SDS011;33129;52.232;5.192;2022-10-18T16:51:30;9.20;;;1.88;;
47383;SDS011;33129;52.232;5.192;2022-10-18T16:53:56;11.23;;;2.60;;
47383;SDS011;33129;52.232;5.192;2022-10-18T16:56:29;8.15;;;2.72;;
47383;SDS011;33129;52.232;5.192;2022-10-18T16:58:56;7.88;;;2.20;;
47383;SDS011;33129;52.232;5.192;2022-10-18T17:01:23;8.43;;;3.20;;
47383;SDS011;33129;52.232;5.192;2022-10-18T17:03:50;10.77;;;2.67;;
47383;SDS011;33129;52.232;5.192;2022-10-18T17:06:18;7.30;;;2.90;;
47383;SDS011;33129;52.232;5.192;2022-10-18T17:08:50;8.83;;;3.20;;
47383;SDS011;33129;52.232;5.192;2022-10-18T17:11:18;13.57;;;5.23;;
47383;SDS011;33129;52.232;5.192;2022-10-18T17:13:45;14.07;;;7.40;;
47383;SDS011;33129;52.232;5.192;2022-10-18T17:16:18;14.90;;;4.60;;
47383;SDS011;33129;52.232;5.192;2022-10-18T17:18:49;15.87;;;7.97;;
47383;SDS011;33129;52.232;5.192;2022-10-18T17:21:15;15.30;;;7.40;;
47383;SDS011;33129;52.232;5.192;2022-10-18T17:23:40;15.67;;;8.77;;
47383;SDS011;33129;52.232;5.192;2022-10-18T17:26:08;13.57;;;5.83;;
47383;SDS011;33129;52.232;5.192;2022-10-18T17:28:39;20.00;;;9.87;;
47383;SDS011;33129;52.232;5.192;2022-10-18T17:31:05;18.73;;;7.57;;
47383;SDS011;33129;52.232;5.192;2022-10-18T17:33:31;10.93;;;4.67;;
47383;SDS011;33129;52.232;5.192;2022-10-18T17:35:57;17.57;;;6.23;;
47383;SDS011;33129;52.232;5.192;2022-10-18T17:38:23;11.33;;;4.87;;
47383;SDS011;33129;52.232;5.192;2022-10-18T17:40:48;12.00;;;4.43;;